Caledonia, MI (49316)

12:43 PM EDT en Octubre 21, 2014 (GMT -0400)
Thornapple/Irving Township | Change Station
CLOSE
Current Station
Estación meteorológica personal
Location: Middleville, MI
Altura: 804 ft
Estaciones meteorológicas cercanas

Alt 804 ft 42.76 °N, 85.43 °W | Updated 15 seconds ago

Nublado
Nublado
47.0 ° F
Sensación térmica 43 ° F
N
8.1
Viento Variable Viento desde NO
Gusts 8.1 mph

Hoy
Alta -- | Baja -- ° F
--% Posibilidad de precipitaciones
Ayer
Alta -- | Baja -- ° F
Precip. -- pul
8:02 AM 6:50 PM
Creciente menguante, 5% visible
Presión 30.13 pul
Visibilidad 10.0 Millas
Nubes Muy nublado 1900 ft
Nublado 2500 ft
Vientos helados 43 ° F
Punto de rocío 42 ° F
Humedad 81%
Precipitaciones 0.00 pul
Espesor de la nieve No disponible.
UV 1 de una escala de 12
Polen 1.40 de una escala de 12
Ozono Buena
PM2.5 Buena
Flu Activity Sporadic
METAR KGRR 211553Z 01013KT 10SM BKN019 OVC025 09/05 A3012 RMK AO2 SLP203 T00890050

More Conditions Fewer Conditions

Presión 30.13 pul
Visibilidad 10.0 Millas
Nubes Muy nublado 1900 ft
Nublado 2500 ft
Vientos helados 43 ° F
Punto de rocío 42 ° F
Humedad 81%
Precipitaciones 0.00 pul
Espesor de la nieve No disponible.
UV 1 de una escala de 12
Polen 1.40 de una escala de 12
Ozono Buena
PM2.5 Buena
Flu Activity Sporadic
METAR KGRR 211553Z 01013KT 10SM BKN019 OVC025 09/05 A3012 RMK AO2 SLP203 T00890050

More Conditions Fewer Conditions

10-Day Weather Forecast

Almanac

Astronomía

Oct. 21, 2014 Salida Puesta
Hora real 8:02 AM EDT 6:50 PM EDT
Crepúsculo civil 7:33 AM EDT 7:18 PM EDT
Crepúsculo náutico 7:00 AM EDT 7:51 PM EDT
Crepúsculo astronómico 6:28 AM EDT 8:24 PM EDT
Luna 5:43 AM EDT 5:46 PM EDT
Horas de luz 11h 45m
Horas de luz
10h 47m
Tomorrow will be 2m 44s shorter.
Creciente menguante, 5% of the Moon is Illuminated
Hoy
Creciente menguante
Oct 23
Nueva
Oct 30
Cuarto creciente
Nov 6
Luna llena
Nov 14
Cuarto menguante

Extremos de hoy

Máximos del estado Bajos del estado

Community

WunderPhotos

Upload Photos

1,763,712 ¡fotos cargadas!

Nearby

Calidad del aire

  Calidad del aire Índice AQ Contaminante
Ayer Buena
PM2.5
Ayer Buena
OZONE
Real Buena
PM2.5
Real Buena
OZONE
Martes Buena
PM2.5
Miércoles Buena
PM2.5
Jueves Buena
PM2.5
Viernes Buena
PM2.5
Sábado Buena
PM2.5

Grosos de nieve

Estación Profundido Altura
No tenemos constancia de nieve nueva.

Actividad de terremotos

Ciudad Distance Mag. Tiempo y dato
No hay informes recientes de la actividad sísmica.
Magnitud mínima muestra es 2,5.

Temperaturas de aguas costeras

Lugar Temperatura
Holland, MI 54.0 ° F

Estaciones meteorológicas cercanas